New Preston Marble Dale, Connecticut
Current Conditions -  °F | °C
As of 9:50 AM on Friday 31 Oct 2014 (Local Time) from KOXC Reporting Station
Broken Clouds Broken Clouds  
Wind Chill: 40°   Ceiling: 25000
Heat Index: 45°   Visibility: 10mi
Dew Point: 30°   Wind: 8mph
Humidity: 57%   Direction: 80°E
Pressure: 30.02"   Gusts: NA
Location:  41.69°N, 73.35°W
Report Text: KOXC 311350Z 08007KT 10SM FEW045 BKN250 07/M01 A3002
Loading
Personal Weather Stations






























Interactive Weather Map
Tropical Storm Tracking
New forecast layout! Learn more

10-Day Weather Forecast

Advertisements
Track Severe Weather on mobile